createdAt,value
2022-10-09T00:01:31.657Z,9.53
2022-10-09T00:04:00.259Z,9.80
2022-10-09T00:06:31.880Z,11.17
2022-10-09T00:09:02.113Z,14.97
2022-10-09T00:11:31.309Z,19.60
2022-10-09T00:14:00.408Z,16.50
2022-10-09T00:16:28.807Z,14.17
2022-10-09T00:18:56.984Z,15.63
2022-10-09T00:21:31.465Z,6.07
2022-10-09T00:24:04.216Z,3.17
2022-10-09T00:26:32.754Z,7.00
2022-10-09T00:29:00.725Z,3.40
2022-10-09T00:31:28.384Z,3.67
2022-10-09T00:33:56.309Z,4.47
2022-10-09T00:36:26.140Z,3.93
2022-10-09T00:38:55.473Z,3.77
2022-10-09T00:41:28.807Z,6.73
2022-10-09T00:44:24.801Z,5.90
2022-10-09T00:46:53.230Z,3.33
2022-10-09T00:49:33.323Z,11.07
2022-10-09T00:52:08.276Z,5.53
2022-10-09T00:54:40.430Z,4.60
2022-10-09T00:57:09.048Z,6.00
2022-10-09T00:59:37.384Z,6.70
2022-10-09T01:02:04.936Z,5.73
2022-10-09T01:04:32.623Z,5.63
2022-10-09T01:07:12.082Z,9.83
2022-10-09T01:09:54.659Z,5.83
2022-10-09T01:12:36.673Z,6.40
2022-10-09T01:15:24.971Z,3.87
2022-10-09T01:18:07.745Z,6.63
2022-10-09T01:20:55.112Z,5.23
2022-10-09T01:23:37.203Z,7.50
2022-10-09T01:26:51.097Z,9.30
2022-10-09T01:29:21.642Z,7.83
2022-10-09T01:31:51.916Z,7.73
2022-10-09T01:34:21.863Z,9.07
2022-10-09T01:36:51.476Z,11.90
2022-10-09T01:39:22.823Z,11.50
2022-10-09T01:41:53.026Z,12.70
2022-10-09T01:44:25.606Z,9.77
2022-10-09T01:46:57.276Z,5.73
2022-10-09T01:49:55.734Z,7.10
2022-10-09T01:52:45.907Z,7.00
2022-10-09T01:55:41.717Z,5.20
2022-10-09T01:58:17.874Z,8.00
2022-10-09T02:00:56.645Z,5.20
2022-10-09T02:03:29.570Z,7.07
2022-10-09T02:05:58.535Z,5.23
2022-10-09T02:08:32.791Z,6.77
2022-10-09T02:11:03.333Z,6.83
2022-10-09T02:13:33.455Z,5.50
2022-10-09T02:16:16.013Z,6.17
2022-10-09T02:18:47.448Z,5.00
2022-10-09T02:21:24.626Z,6.60
2022-10-09T02:23:53.964Z,6.27
2022-10-09T02:26:22.032Z,4.93
2022-10-09T02:28:52.781Z,8.90
2022-10-09T02:31:28.874Z,6.57
2022-10-09T02:34:03.750Z,4.10
2022-10-09T02:36:31.995Z,4.37
2022-10-09T02:39:00.834Z,5.53
2022-10-09T02:41:28.396Z,4.80
2022-10-09T02:43:56.653Z,6.63
2022-10-09T02:46:25.179Z,7.40
2022-10-09T02:48:52.950Z,5.77
2022-10-09T02:51:20.771Z,4.83
2022-10-09T02:53:48.481Z,6.33
2022-10-09T02:56:16.196Z,6.20
2022-10-09T02:58:43.733Z,6.33
2022-10-09T03:01:11.486Z,8.67
2022-10-09T03:03:39.062Z,10.17
2022-10-09T03:06:13.900Z,7.37
2022-10-09T03:08:48.696Z,8.60
2022-10-09T03:11:18.458Z,9.43
2022-10-09T03:13:46.470Z,14.13
2022-10-09T03:16:20.452Z,14.73
2022-10-09T03:18:50.120Z,13.80
2022-10-09T03:21:22.477Z,9.43
2022-10-09T03:23:50.648Z,9.43
2022-10-09T03:26:22.324Z,12.90
2022-10-09T03:28:52.729Z,9.10
2022-10-09T03:31:46.921Z,9.43
2022-10-09T03:34:14.708Z,8.77
2022-10-09T03:36:42.519Z,11.70
2022-10-09T03:39:10.660Z,10.57
2022-10-09T03:41:38.191Z,12.90
2022-10-09T03:44:05.970Z,8.97
2022-10-09T03:46:33.494Z,7.33
2022-10-09T03:49:01.132Z,13.47
2022-10-09T03:51:28.698Z,7.73
2022-10-09T03:53:56.246Z,10.63
2022-10-09T03:56:23.782Z,8.07
2022-10-09T03:58:51.505Z,10.83
2022-10-09T04:01:19.058Z,10.50
2022-10-09T04:03:46.659Z,9.63
2022-10-09T04:06:14.322Z,6.73
2022-10-09T04:08:41.903Z,13.03
2022-10-09T04:11:09.626Z,22.47
2022-10-09T04:13:37.183Z,7.83
2022-10-09T04:16:05.307Z,5.20
2022-10-09T04:18:32.838Z,7.30
2022-10-09T04:21:00.367Z,6.00
2022-10-09T04:23:28.614Z,7.80
2022-10-09T04:26:00.878Z,10.63
2022-10-09T04:28:31.450Z,8.77
2022-10-09T04:31:00.032Z,10.33
2022-10-09T04:33:27.931Z,14.47
2022-10-09T04:35:57.118Z,16.90
2022-10-09T04:38:25.608Z,22.17
2022-10-09T04:41:02.104Z,14.20
2022-10-09T04:43:30.261Z,11.37
2022-10-09T04:45:58.428Z,10.03
2022-10-09T04:48:26.869Z,9.17
2022-10-09T04:50:54.444Z,12.33
2022-10-09T04:53:22.017Z,7.97
2022-10-09T04:55:49.670Z,12.77
2022-10-09T04:58:17.336Z,10.20
2022-10-09T05:00:46.862Z,18.53
2022-10-09T05:03:14.559Z,19.63
2022-10-09T05:05:42.124Z,14.73
2022-10-09T05:08:09.843Z,17.63
2022-10-09T05:10:37.523Z,15.30
2022-10-09T05:13:05.208Z,18.27
2022-10-09T05:15:36.106Z,10.57
2022-10-09T05:18:03.774Z,13.33
2022-10-09T05:20:31.402Z,10.63
2022-10-09T05:22:59.089Z,14.07
2022-10-09T05:25:26.716Z,4.70
2022-10-09T05:27:54.241Z,4.93
2022-10-09T05:30:21.819Z,6.37
2022-10-09T05:32:50.049Z,6.07
2022-10-09T05:35:17.939Z,8.53
2022-10-09T05:37:46.273Z,5.50
2022-10-09T05:40:13.909Z,5.37
2022-10-09T05:42:41.545Z,5.13
2022-10-09T05:45:10.173Z,5.27
2022-10-09T05:47:37.728Z,7.17
2022-10-09T05:50:05.787Z,10.77
2022-10-09T05:52:35.213Z,8.23
2022-10-09T05:55:02.858Z,8.33
2022-10-09T05:57:30.454Z,6.30
2022-10-09T05:59:58.132Z,4.60
2022-10-09T06:02:25.684Z,6.23
2022-10-09T06:04:53.288Z,5.20
2022-10-09T06:07:20.896Z,3.93
2022-10-09T06:09:48.522Z,8.67
2022-10-09T06:12:16.044Z,7.73
2022-10-09T06:14:43.611Z,5.67
2022-10-09T06:17:12.574Z,8.33
2022-10-09T06:19:40.152Z,9.17
2022-10-09T06:22:07.695Z,8.10
2022-10-09T06:24:35.439Z,10.93
2022-10-09T06:27:03.172Z,10.20
2022-10-09T06:29:30.722Z,13.13
2022-10-09T06:31:58.994Z,9.90
2022-10-09T06:34:26.647Z,9.87
2022-10-09T06:36:54.204Z,10.33
2022-10-09T06:39:22.748Z,10.03
2022-10-09T06:41:50.983Z,9.60
2022-10-09T06:44:32.742Z,7.60
2022-10-09T06:47:00.776Z,7.93
2022-10-09T06:49:28.422Z,8.03
2022-10-09T06:51:55.998Z,7.40
2022-10-09T06:54:23.562Z,8.53
2022-10-09T06:56:51.102Z,6.80
2022-10-09T06:59:18.540Z,9.20
2022-10-09T07:01:46.195Z,8.63
2022-10-09T07:04:15.259Z,6.77
2022-10-09T07:06:47.692Z,9.70
2022-10-09T07:09:16.779Z,7.20
2022-10-09T07:11:49.316Z,9.00
2022-10-09T07:14:18.272Z,11.30
2022-10-09T07:16:48.635Z,9.73
2022-10-09T07:19:17.766Z,13.33
2022-10-09T07:21:48.066Z,4.80
2022-10-09T07:24:20.810Z,9.93
2022-10-09T07:26:49.308Z,7.97
2022-10-09T07:29:19.953Z,8.93
2022-10-09T07:31:47.849Z,31.37
2022-10-09T07:34:15.680Z,7.53
2022-10-09T07:46:08.837Z,6.30
2022-10-09T07:48:36.903Z,12.97
2022-10-09T07:51:19.544Z,11.17
2022-10-09T07:53:47.983Z,25.23
2022-10-09T07:56:21.275Z,12.60
2022-10-09T07:58:53.394Z,10.30
2022-10-09T08:01:22.290Z,12.97
2022-10-09T08:03:50.540Z,12.23
2022-10-09T08:06:19.378Z,10.47
2022-10-09T08:08:54.536Z,6.23
2022-10-09T08:11:24.553Z,9.70
2022-10-09T08:13:54.810Z,5.07
2022-10-09T08:16:24.855Z,6.67
2022-10-09T08:19:01.666Z,10.80
2022-10-09T08:21:30.060Z,4.73
2022-10-09T08:23:59.201Z,6.10
2022-10-09T08:26:30.044Z,6.93
2022-10-09T08:29:01.478Z,5.60
2022-10-09T08:31:29.801Z,5.13
2022-10-09T08:34:00.931Z,4.27
2022-10-09T08:36:29.088Z,7.20
2022-10-09T08:38:56.611Z,7.27
2022-10-09T08:41:53.092Z,3.50
2022-10-09T08:44:23.819Z,5.80
2022-10-09T08:47:17.589Z,6.40
2022-10-09T08:50:13.608Z,9.47
2022-10-09T08:53:31.231Z,8.80
2022-10-09T08:56:02.491Z,4.83
2022-10-09T08:58:38.079Z,3.83
2022-10-09T09:01:44.539Z,10.97
2022-10-09T09:04:45.636Z,6.63
2022-10-09T09:07:31.219Z,7.20
2022-10-09T09:11:21.389Z,3.67
2022-10-09T09:14:29.043Z,4.22
2022-10-09T09:17:36.975Z,11.63
2022-10-09T09:20:26.828Z,3.85
2022-10-09T09:22:56.327Z,5.43
2022-10-09T09:25:41.560Z,5.75
2022-10-09T09:28:33.351Z,3.45
2022-10-09T09:31:29.830Z,3.45
2022-10-09T09:34:12.689Z,2.63
2022-10-09T09:37:00.537Z,5.15
2022-10-09T09:42:23.172Z,3.05
2022-10-09T09:45:05.483Z,4.20
2022-10-09T09:47:45.640Z,7.50
2022-10-09T09:50:35.107Z,7.63
2022-10-09T09:53:14.623Z,6.18
2022-10-09T09:55:43.684Z,7.55
2022-10-09T09:58:18.275Z,2.75
2022-10-09T10:01:06.484Z,5.68
2022-10-09T10:03:36.847Z,4.32
2022-10-09T10:06:05.226Z,4.57
2022-10-09T10:08:36.219Z,9.65
2022-10-09T10:11:08.318Z,5.13
2022-10-09T10:13:49.927Z,5.90
2022-10-09T10:16:32.662Z,3.22
2022-10-09T10:19:20.193Z,3.30
2022-10-09T10:21:49.589Z,3.35
2022-10-09T10:24:27.735Z,3.97
2022-10-09T10:27:11.026Z,5.85
2022-10-09T10:29:44.037Z,2.10
2022-10-09T10:32:33.602Z,3.10
2022-10-09T10:35:17.189Z,3.20
2022-10-09T10:38:29.097Z,6.32
2022-10-09T10:41:06.441Z,4.60
2022-10-09T10:43:44.685Z,4.22
2022-10-09T10:46:53.726Z,3.30
2022-10-09T10:49:25.087Z,4.18
2022-10-09T10:52:08.509Z,3.63
2022-10-09T10:54:46.023Z,11.93
2022-10-09T10:57:18.892Z,5.30
2022-10-09T11:00:06.475Z,6.30
2022-10-09T11:03:03.461Z,9.55
2022-10-09T11:06:19.186Z,9.55
2022-10-09T11:09:04.308Z,2.40
2022-10-09T11:11:55.570Z,5.15
2022-10-09T11:15:18.254Z,3.08
2022-10-09T11:17:56.735Z,7.00
2022-10-09T11:21:05.374Z,4.35
2022-10-09T11:23:40.526Z,3.35
2022-10-09T11:26:44.058Z,7.28
2022-10-09T11:29:30.005Z,12.27
2022-10-09T11:32:13.779Z,4.90
2022-10-09T11:34:52.542Z,3.95
2022-10-09T11:37:28.608Z,4.05
2022-10-09T11:39:57.643Z,2.60
2022-10-09T11:42:27.182Z,5.07
2022-10-09T11:45:24.252Z,7.18
2022-10-09T11:48:14.710Z,4.13
2022-10-09T11:51:06.636Z,3.90
2022-10-09T11:53:37.576Z,8.82
2022-10-09T11:56:24.180Z,2.90
2022-10-09T11:59:00.490Z,8.98
2022-10-09T12:01:59.199Z,4.85
2022-10-09T12:04:53.843Z,3.95
2022-10-09T12:07:35.142Z,4.40
2022-10-09T12:10:33.612Z,5.28
2022-10-09T12:13:06.192Z,5.93
2022-10-09T12:15:51.530Z,4.47
2022-10-09T12:18:32.270Z,2.10
2022-10-09T12:21:18.921Z,4.18
2022-10-09T12:23:48.921Z,4.25
2022-10-09T12:26:21.823Z,5.95
2022-10-09T12:29:02.951Z,6.72
2022-10-09T12:31:37.283Z,6.20
2022-10-09T12:34:13.024Z,3.83
2022-10-09T12:36:40.583Z,3.08
2022-10-09T12:39:22.933Z,6.90
2022-10-09T12:42:01.128Z,4.95
2022-10-09T12:44:36.726Z,2.08
2022-10-09T12:47:30.356Z,2.42
2022-10-09T12:50:22.290Z,2.60
2022-10-09T12:53:04.467Z,2.22
2022-10-09T12:55:50.148Z,6.35
2022-10-09T12:58:31.736Z,4.75
2022-10-09T13:01:06.368Z,8.85
2022-10-09T13:03:57.767Z,3.95
2022-10-09T13:06:51.614Z,3.47
2022-10-09T13:09:47.878Z,3.80
2022-10-09T13:12:29.229Z,2.28
2022-10-09T13:15:04.607Z,3.55
2022-10-09T13:17:37.647Z,2.97
2022-10-09T13:20:29.097Z,2.85
2022-10-09T13:23:02.751Z,6.90
2022-10-09T13:25:40.646Z,4.97
2022-10-09T13:28:08.326Z,5.28
2022-10-09T13:30:36.078Z,3.50
2022-10-09T13:33:03.603Z,7.13
2022-10-09T13:35:34.616Z,4.07
2022-10-09T13:38:02.068Z,2.63
2022-10-09T13:40:30.065Z,5.05
2022-10-09T13:43:03.603Z,8.02
2022-10-09T13:45:31.092Z,2.97
2022-10-09T13:47:59.714Z,2.05
2022-10-09T13:50:27.306Z,3.83
2022-10-09T13:52:55.109Z,6.28
2022-10-09T13:55:25.334Z,5.88
2022-10-09T13:58:12.868Z,4.80
2022-10-09T14:00:41.394Z,3.90
2022-10-09T14:03:08.971Z,6.40
2022-10-09T14:05:42.457Z,29.58
2022-10-09T14:08:11.794Z,2.70
2022-10-09T14:10:44.115Z,6.10
2022-10-09T14:13:12.118Z,5.88
2022-10-09T14:15:43.485Z,3.97
2022-10-09T14:18:13.815Z,2.20
2022-10-09T14:20:41.394Z,4.25
2022-10-09T14:23:10.462Z,3.00
2022-10-09T14:25:41.077Z,2.20
2022-10-09T14:28:11.560Z,2.63
2022-10-09T14:30:44.399Z,4.78
2022-10-09T14:33:25.811Z,2.90
2022-10-09T14:35:57.565Z,4.43
2022-10-09T14:38:27.794Z,2.20
2022-10-09T14:40:57.132Z,3.88
2022-10-09T14:43:28.885Z,2.50
2022-10-09T14:46:17.878Z,2.85
2022-10-09T14:48:49.121Z,2.90
2022-10-09T14:51:24.616Z,8.57
2022-10-09T14:53:55.957Z,3.50
2022-10-09T14:56:31.651Z,14.20
2022-10-09T14:59:02.660Z,12.50
2022-10-09T15:01:35.701Z,6.63
2022-10-09T15:04:10.086Z,8.38
2022-10-09T15:06:37.741Z,13.73
2022-10-09T15:09:06.338Z,35.72
2022-10-09T15:11:36.180Z,99.82
2022-10-09T15:14:07.642Z,33.05
2022-10-09T15:16:35.774Z,62.42
2022-10-09T15:19:05.821Z,65.35
2022-10-09T15:21:36.090Z,18.23
2022-10-09T15:24:07.008Z,16.83
2022-10-09T15:26:37.465Z,14.13
2022-10-09T15:29:07.706Z,16.42
2022-10-09T15:31:39.832Z,6.70
2022-10-09T15:34:08.646Z,31.55
2022-10-09T15:36:40.461Z,74.28
2022-10-09T15:39:09.096Z,71.72
2022-10-09T15:41:39.538Z,90.85
2022-10-09T15:44:16.449Z,32.25
2022-10-09T15:46:45.107Z,66.97
2022-10-09T15:49:13.071Z,73.45
2022-10-09T15:51:41.412Z,41.88
2022-10-09T15:54:09.176Z,42.28
2022-10-09T15:56:39.866Z,35.63
2022-10-09T15:59:16.771Z,32.90
2022-10-09T16:01:44.684Z,24.02
2022-10-09T16:04:12.180Z,38.00
2022-10-09T16:06:39.929Z,30.40
2022-10-09T16:09:08.605Z,66.47
2022-10-09T16:11:36.217Z,57.88
2022-10-09T16:14:05.137Z,52.67
2022-10-09T16:16:35.336Z,71.90
2022-10-09T16:19:05.416Z,78.90
2022-10-09T16:21:33.325Z,48.50
2022-10-09T16:24:01.594Z,46.88
2022-10-09T16:26:30.527Z,28.13
2022-10-09T16:29:00.406Z,28.67
2022-10-09T16:31:47.796Z,17.73
2022-10-09T16:34:15.403Z,10.65
2022-10-09T16:36:42.765Z,15.82
2022-10-09T16:39:10.418Z,15.40
2022-10-09T16:41:41.776Z,19.73
2022-10-09T16:44:16.941Z,24.52
2022-10-09T16:46:45.130Z,22.30
2022-10-09T16:49:24.233Z,14.02
2022-10-09T16:51:52.928Z,12.77
2022-10-09T16:54:20.413Z,16.60
2022-10-09T16:56:50.438Z,17.63
2022-10-09T16:59:19.047Z,10.10
2022-10-09T17:01:47.738Z,8.82
2022-10-09T17:04:15.908Z,10.60
2022-10-09T17:06:44.836Z,14.70
2022-10-09T17:09:15.028Z,10.93
2022-10-09T17:11:44.632Z,13.88
2022-10-09T17:14:13.187Z,12.25
2022-10-09T17:16:45.883Z,13.30
2022-10-09T17:19:15.627Z,20.50
2022-10-09T17:21:45.224Z,12.67
2022-10-09T17:24:16.368Z,14.73
2022-10-09T17:26:43.944Z,11.73
2022-10-09T17:29:14.092Z,11.37
2022-10-09T17:31:42.170Z,17.33
2022-10-09T17:34:13.279Z,18.60
2022-10-09T17:36:45.555Z,18.97
2022-10-09T17:39:17.273Z,10.37
2022-10-09T17:41:47.541Z,13.00
2022-10-09T17:44:18.319Z,8.47
2022-10-09T17:46:52.349Z,8.87
2022-10-09T17:49:20.414Z,8.37
2022-10-09T17:51:48.312Z,6.70
2022-10-09T17:54:17.437Z,4.67
2022-10-09T17:56:47.146Z,4.60
2022-10-09T17:59:19.038Z,3.67
2022-10-09T18:01:48.057Z,7.03
2022-10-09T18:04:18.364Z,7.30
2022-10-09T18:06:46.876Z,5.83
2022-10-09T18:09:14.426Z,7.00
2022-10-09T18:11:43.181Z,8.90
2022-10-09T18:14:12.743Z,6.30
2022-10-09T18:16:41.238Z,7.70
2022-10-09T18:19:13.770Z,8.73
2022-10-09T18:21:45.329Z,8.00
2022-10-09T18:24:14.502Z,6.47
2022-10-09T18:26:45.459Z,5.50
2022-10-09T18:29:13.045Z,7.10
2022-10-09T18:31:44.363Z,4.50
2022-10-09T18:34:39.025Z,5.63
2022-10-09T18:37:07.948Z,5.60
2022-10-09T18:39:35.416Z,9.47
2022-10-09T18:42:05.071Z,11.07
2022-10-09T18:44:40.162Z,7.00
2022-10-09T18:47:15.548Z,8.47
2022-10-09T18:49:50.151Z,7.53
2022-10-09T18:52:20.083Z,6.33
2022-10-09T18:54:53.171Z,7.87
2022-10-09T18:57:24.097Z,9.53
2022-10-09T18:59:56.648Z,6.87
2022-10-09T19:02:26.946Z,3.90
2022-10-09T19:04:55.607Z,3.27
2022-10-09T19:07:24.150Z,8.53
2022-10-09T19:09:56.960Z,8.13
2022-10-09T19:12:25.639Z,5.33
2022-10-09T19:14:53.795Z,4.57
2022-10-09T19:17:21.583Z,3.87
2022-10-09T19:19:49.877Z,7.60
2022-10-09T19:22:23.620Z,6.83
2022-10-09T19:24:52.544Z,8.00
2022-10-09T19:27:24.482Z,4.97
2022-10-09T19:29:57.113Z,2.97
2022-10-09T19:32:25.230Z,3.13
2022-10-09T19:34:52.787Z,5.03
2022-10-09T19:37:22.827Z,6.17
2022-10-09T19:39:53.465Z,9.30
2022-10-09T19:42:22.881Z,6.87
2022-10-09T19:44:50.423Z,3.67
2022-10-09T19:47:19.184Z,5.83
2022-10-09T19:49:46.671Z,5.33
2022-10-09T19:52:16.173Z,4.43
2022-10-09T19:54:43.712Z,3.17
2022-10-09T19:57:14.572Z,5.20
2022-10-09T19:59:45.709Z,6.90
2022-10-09T20:02:14.157Z,7.97
2022-10-09T20:04:42.110Z,7.27
2022-10-09T20:07:12.636Z,4.17
2022-10-09T20:09:41.339Z,5.10
2022-10-09T20:12:09.712Z,5.67
2022-10-09T20:14:37.251Z,10.23
2022-10-09T20:17:04.895Z,7.67
2022-10-09T20:19:32.546Z,11.30
2022-10-09T20:22:00.098Z,6.13
2022-10-09T20:24:27.609Z,8.33
2022-10-09T20:26:55.169Z,10.80
2022-10-09T20:29:25.131Z,5.80
2022-10-09T20:31:55.365Z,9.07
2022-10-09T20:34:25.017Z,10.23
2022-10-09T20:36:52.783Z,10.00
2022-10-09T20:39:21.456Z,11.50
2022-10-09T20:41:49.472Z,8.03
2022-10-09T20:44:17.061Z,7.27
2022-10-09T20:46:44.632Z,10.83
2022-10-09T20:49:15.107Z,6.23
2022-10-09T20:51:43.314Z,16.80
2022-10-09T20:54:17.410Z,8.10
2022-10-09T20:56:45.150Z,6.37
2022-10-09T20:59:15.456Z,7.27
2022-10-09T21:01:43.295Z,6.87
2022-10-09T21:04:12.196Z,4.93
2022-10-09T21:06:40.389Z,6.00
2022-10-09T21:09:08.340Z,7.10
2022-10-09T21:11:36.387Z,9.30
2022-10-09T21:14:04.610Z,8.43
2022-10-09T21:16:32.390Z,7.50
2022-10-09T21:19:05.490Z,7.00
2022-10-09T21:21:33.926Z,8.23
2022-10-09T21:24:02.405Z,6.03
2022-10-09T21:26:31.792Z,5.20
2022-10-09T21:29:00.153Z,6.03
2022-10-09T21:31:30.676Z,7.07
2022-10-09T21:33:59.916Z,4.93
2022-10-09T21:37:19.457Z,7.50
2022-10-09T21:39:37.156Z,6.23
2022-10-09T21:42:04.924Z,6.23
2022-10-09T21:44:32.459Z,4.47
2022-10-09T21:47:00.193Z,6.03
2022-10-09T21:49:28.523Z,7.30
2022-10-09T21:51:56.536Z,4.87
2022-10-09T21:54:24.341Z,7.43
2022-10-09T21:56:51.977Z,4.77
2022-10-09T21:59:19.480Z,6.40
2022-10-09T22:01:47.050Z,5.67
2022-10-09T22:04:14.644Z,3.57
2022-10-09T22:06:43.323Z,5.40
2022-10-09T22:09:12.502Z,4.27
2022-10-09T22:11:40.217Z,5.20
2022-10-09T22:14:08.297Z,5.53
2022-10-09T22:16:35.787Z,7.90
2022-10-09T22:19:03.802Z,4.63
2022-10-09T22:21:31.325Z,5.63
2022-10-09T22:24:01.114Z,6.13
2022-10-09T22:26:28.832Z,5.03
2022-10-09T22:28:56.356Z,5.07
2022-10-09T22:31:27.671Z,6.70
2022-10-09T22:33:59.249Z,4.33
2022-10-09T22:36:30.786Z,7.20
2022-10-09T22:39:01.880Z,5.17
2022-10-09T22:41:30.626Z,8.70
2022-10-09T22:44:00.558Z,5.73
2022-10-09T22:46:38.522Z,4.53
2022-10-09T22:49:08.336Z,3.87
2022-10-09T22:51:35.936Z,3.50
2022-10-09T22:54:03.615Z,3.53
2022-10-09T22:56:39.284Z,3.47
2022-10-09T22:59:10.530Z,5.60
2022-10-09T23:01:48.357Z,4.10
2022-10-09T23:04:18.089Z,8.63
2022-10-09T23:06:46.614Z,4.70
2022-10-09T23:09:15.644Z,3.60
2022-10-09T23:11:43.987Z,4.80
2022-10-09T23:14:12.219Z,4.50
2022-10-09T23:16:40.645Z,7.87
2022-10-09T23:19:08.833Z,3.80
2022-10-09T23:21:40.022Z,5.27
2022-10-09T23:24:09.667Z,4.93
2022-10-09T23:26:38.160Z,4.27
2022-10-09T23:29:09.604Z,5.70
2022-10-09T23:31:37.531Z,5.40
2022-10-09T23:34:06.362Z,4.37
2022-10-09T23:36:34.563Z,5.17
2022-10-09T23:39:04.129Z,3.63
2022-10-09T23:41:31.708Z,3.37
2022-10-09T23:43:59.382Z,8.87
2022-10-09T23:46:31.725Z,3.43
2022-10-09T23:48:59.558Z,3.80
2022-10-09T23:51:28.075Z,3.87
2022-10-09T23:53:56.576Z,5.33
2022-10-09T23:56:34.215Z,3.63
2022-10-09T23:59:06.153Z,5.63
